Capon Springs, West Virginia
Current Conditions -  °F | °C
As of 6:55 PM on Wednesday 22 Oct 2014 (Local Time) from KOKV Reporting Station
Broken Clouds Broken Clouds  
Wind Chill: 54°   Ceiling: 11000
Heat Index: 54°   Visibility: 10mi
Dew Point: 41°   Wind: 9mph
Humidity: 62%   Direction: 330°NNW
Pressure: 30.02"   Gusts: 21mph
Location:  39.14°N, 78.48°W
Report Text: KOKV 222255Z AUTO 33008G18KT 10SM BKN110 12/05 A3002 RMK AO2
Loading
Personal Weather Stations






























Interactive Weather Map
Tropical Storm Tracking
New forecast layout! Learn more

10-Day Weather Forecast

Advertisements
Track Severe Weather on mobile